Time;durP1;ratioP1;P1;durP2;ratioP2;P2;SDS_P1;SDS_P2;PMS_P1;PMS_P2;Temp;Humidity;BMP_temperature;BMP_pressure;BME280_temperature;BME280_humidity;BME280_pressure;Samples;Min_cycle;Max_cycle;Signal;HPM_P1;HPM_P2
2022/05/26 00:00:01;;;;;;;1.55;0.70;;;;;;;;;;5089645;28;20523;-86
2022/05/26 00:02:28;;;;;;;2.13;0.82;;;;;;;;;;5089467;28;20390;-85
2022/05/26 00:04:56;;;;;;;2.08;0.77;;;;;;;;;;5089170;28;20506;-85
2022/05/26 00:07:23;;;;;;;0.70;0.70;;;;;;;;;;5073635;28;20477;-85
2022/05/26 00:09:50;;;;;;;2.72;0.70;;;;;;;;;;5087958;28;20052;-85
2022/05/26 00:12:19;;;;;;;3.00;1.35;;;;;;;;;;5083374;28;20048;-85
2022/05/26 00:14:46;;;;;;;1.40;0.90;;;;;;;;;;5089183;28;20106;-86
2022/05/26 00:17:14;;;;;;;2.08;0.80;;;;;;;;;;5073303;28;20052;-86
2022/05/26 00:19:42;;;;;;;4.28;0.90;;;;;;;;;;5086185;28;20109;-86
2022/05/26 00:22:09;;;;;;;0.95;0.73;;;;;;;;;;5073621;28;20066;-86
2022/05/26 00:24:36;;;;;;;4.97;0.95;;;;;;;;;;5073355;28;20143;-85
2022/05/26 00:27:03;;;;;;;1.50;0.90;;;;;;;;;;5081204;28;20054;-85
2022/05/26 00:29:30;;;;;;;1.83;1.05;;;;;;;;;;5088155;28;20139;-85
2022/05/26 00:31:58;;;;;;;3.33;1.10;;;;;;;;;;5089094;28;20048;-86
2022/05/26 00:34:25;;;;;;;2.65;0.80;;;;;;;;;;5072920;28;20050;-86
2022/05/26 00:36:52;;;;;;;0.85;0.85;;;;;;;;;;5087536;28;20066;-86
2022/05/26 00:39:22;;;;;;;2.05;0.73;;;;;;;;;;5083155;28;20135;-86
2022/05/26 00:41:52;;;;;;;2.80;1.25;;;;;;;;;;5088675;28;20050;-86
2022/05/26 00:44:19;;;;;;;2.15;0.77;;;;;;;;;;5073110;28;20131;-85
2022/05/26 00:46:53;;;;;;;2.35;0.85;;;;;;;;;;5086421;28;20143;-86
2022/05/26 00:49:33;;;;;;;2.58;1.30;;;;;;;;;;5072995;28;20131;-85
2022/05/26 00:52:00;;;;;;;1.23;0.80;;;;;;;;;;5088446;28;20127;-85
2022/05/26 00:54:28;;;;;;;1.70;1.08;;;;;;;;;;5072535;28;20058;-86
2022/05/26 00:56:59;;;;;;;1.23;0.85;;;;;;;;;;5065407;28;20059;-86
2022/05/26 00:59:36;;;;;;;2.10;1.02;;;;;;;;;;5051807;28;20048;-85
2022/05/26 01:02:03;;;;;;;1.90;0.95;;;;;;;;;;5052230;28;20132;-85
2022/05/26 01:04:35;;;;;;;2.25;0.70;;;;;;;;;;5051682;28;20110;-85
2022/05/26 01:07:08;;;;;;;1.17;0.90;;;;;;;;;;5051704;28;20048;-85
2022/05/26 01:09:35;;;;;;;1.63;1.20;;;;;;;;;;5051643;28;20583;-85
2022/05/26 01:12:02;;;;;;;2.05;1.00;;;;;;;;;;5052669;28;20048;-85
2022/05/26 01:14:31;;;;;;;1.02;1.02;;;;;;;;;;5051433;28;20132;-85
2022/05/26 01:17:17;;;;;;;3.13;0.80;;;;;;;;;;5053003;28;20041;-85
2022/05/26 01:19:50;;;;;;;1.20;1.10;;;;;;;;;;5052406;28;20049;-85
2022/05/26 01:22:37;;;;;;;1.17;0.75;;;;;;;;;;5051752;28;20446;-85
2022/05/26 01:25:19;;;;;;;2.28;0.95;;;;;;;;;;5052821;28;20448;-85
2022/05/26 01:27:56;;;;;;;4.32;0.70;;;;;;;;;;5052607;28;20163;-85
2022/05/26 01:30:24;;;;;;;1.48;1.00;;;;;;;;;;5052373;28;20091;-85
2022/05/26 01:33:10;;;;;;;0.90;0.70;;;;;;;;;;5051250;28;20056;-86
2022/05/26 01:35:56;;;;;;;1.08;0.75;;;;;;;;;;5052292;28;20045;-85
2022/05/26 01:38:23;;;;;;;1.92;1.00;;;;;;;;;;5052564;28;20076;-86
2022/05/26 01:40:56;;;;;;;2.40;0.90;;;;;;;;;;5051462;28;20140;-86
2022/05/26 01:43:42;;;;;;;0.90;0.80;;;;;;;;;;5055267;28;20132;-86
2022/05/26 01:46:28;;;;;;;2.78;1.02;;;;;;;;;;5049252;28;20131;-85
2022/05/26 01:48:58;;;;;;;2.70;1.10;;;;;;;;;;5054978;28;20071;-86
2022/05/26 01:51:29;;;;;;;1.92;1.13;;;;;;;;;;5054878;28;20147;-86
2022/05/26 01:54:02;;;;;;;1.42;1.00;;;;;;;;;;5056292;28;20057;-86
2022/05/26 01:56:29;;;;;;;0.98;0.88;;;;;;;;;;5058428;28;20094;-86
2022/05/26 01:59:04;;;;;;;0.80;0.80;;;;;;;;;;5091431;28;20060;-85
2022/05/26 02:01:33;;;;;;;1.50;1.20;;;;;;;;;;5075786;28;20083;-85
2022/05/26 02:04:02;;;;;;;6.28;0.93;;;;;;;;;;5075731;28;20050;-86
2022/05/26 02:06:32;;;;;;;0.90;0.90;;;;;;;;;;5086982;28;20048;-86
2022/05/26 02:09:04;;;;;;;1.50;1.10;;;;;;;;;;5091590;28;20052;-86
2022/05/26 02:11:31;;;;;;;2.10;0.90;;;;;;;;;;5086912;28;20126;-86
2022/05/26 02:13:58;;;;;;;2.42;0.80;;;;;;;;;;5092825;28;20123;-86
2022/05/26 02:16:30;;;;;;;1.10;0.77;;;;;;;;;;5086018;28;20127;-85
2022/05/26 02:19:09;;;;;;;0.80;0.80;;;;;;;;;;5091501;28;20080;-85
2022/05/26 02:21:41;;;;;;;1.50;0.88;;;;;;;;;;5075623;28;20102;-86
2022/05/26 02:24:10;;;;;;;1.27;0.80;;;;;;;;;;5075375;28;20044;-85
2022/05/26 02:26:38;;;;;;;1.35;0.82;;;;;;;;;;5087654;28;20052;-85
2022/05/26 02:31:52;;;;;;;3.63;0.93;;;;;;;;;;5075524;28;20127;-85
2022/05/26 02:34:20;;;;;;;1.70;0.88;;;;;;;;;;5075113;28;20091;-86
2022/05/26 02:36:50;;;;;;;1.77;1.13;;;;;;;;;;5088744;28;20048;-85
2022/05/26 02:39:17;;;;;;;1.25;0.93;;;;;;;;;;5075053;28;20052;-85
2022/05/26 02:41:45;;;;;;;4.55;1.00;;;;;;;;;;5088191;28;20052;-85
2022/05/26 02:44:12;;;;;;;1.52;1.20;;;;;;;;;;5083741;28;20062;-85
2022/05/26 02:46:42;;;;;;;3.50;1.17;;;;;;;;;;5074940;28;20087;-85
2022/05/26 02:49:26;;;;;;;1.13;0.95;;;;;;;;;;5074986;28;20056;-85
2022/05/26 02:51:55;;;;;;;3.33;1.20;;;;;;;;;;5074742;28;20052;-86
2022/05/26 02:54:26;;;;;;;1.00;1.00;;;;;;;;;;5084140;28;20090;-85
2022/05/26 02:57:02;;;;;;;2.35;1.10;;;;;;;;;;5068031;28;20136;-86
2022/05/26 02:59:34;;;;;;;0.82;0.82;;;;;;;;;;5053701;28;20135;-85
2022/05/26 03:02:13;;;;;;;2.65;1.17;;;;;;;;;;5046338;28;20091;-85
2022/05/26 03:04:46;;;;;;;1.90;1.80;;;;;;;;;;5053443;28;20053;-84
2022/05/26 03:07:14;;;;;;;2.42;1.80;;;;;;;;;;5054758;28;20415;-85
2022/05/26 03:09:42;;;;;;;2.47;1.85;;;;;;;;;;5053453;28;20049;-85
2022/05/26 03:12:24;;;;;;;1.63;1.20;;;;;;;;;;5054458;28;20045;-85
2022/05/26 03:14:52;;;;;;;1.25;1.17;;;;;;;;;;5053161;28;20526;-85
2022/05/26 03:17:19;;;;;;;2.20;1.40;;;;;;;;;;5053283;28;20386;-85
2022/05/26 03:19:46;;;;;;;1.33;1.20;;;;;;;;;;5054250;28;20481;-85
2022/05/26 03:22:14;;;;;;;1.20;1.10;;;;;;;;;;5053438;28;20136;-85
2022/05/26 03:24:41;;;;;;;1.10;1.10;;;;;;;;;;5053962;28;20128;-85
2022/05/26 03:27:08;;;;;;;1.10;1.10;;;;;;;;;;5053981;28;20481;-85
2022/05/26 03:29:35;;;;;;;2.53;1.00;;;;;;;;;;5053070;28;20148;-85
2022/05/26 03:32:03;;;;;;;0.85;0.85;;;;;;;;;;5053168;28;20053;-85
2022/05/26 03:42:49;;;;;;;1.90;1.45;;;;;;;;;;5054224;28;20131;-85
2022/05/26 03:45:20;;;;;;;1.10;1.10;;;;;;;;;;5052523;28;20131;-85
2022/05/26 03:47:48;;;;;;;2.63;1.58;;;;;;;;;;5053644;28;20092;-84
2022/05/26 03:50:15;;;;;;;1.17;1.17;;;;;;;;;;5052556;28;20061;-85
2022/05/26 03:52:42;;;;;;;1.45;1.00;;;;;;;;;;5052473;28;20049;-85
2022/05/26 03:55:10;;;;;;;1.30;1.00;;;;;;;;;;5053628;28;20049;-85
2022/05/26 03:57:37;;;;;;;0.90;0.90;;;;;;;;;;5053140;28;20139;-85
2022/05/26 04:00:05;;;;;;;2.17;1.30;;;;;;;;;;5052360;28;20136;-85
2022/05/26 04:02:34;;;;;;;3.85;3.15;;;;;;;;;;5035412;28;20136;-85
2022/05/26 04:05:01;;;;;;;8.95;2.72;;;;;;;;;;5052244;28;20106;-85
2022/05/26 04:07:29;;;;;;;2.80;2.45;;;;;;;;;;5053253;28;20052;-85
2022/05/26 04:09:56;;;;;;;2.67;1.80;;;;;;;;;;5053312;28;20137;-85
2022/05/26 04:12:23;;;;;;;4.53;3.22;;;;;;;;;;5051891;28;20136;-85
2022/05/26 04:14:50;;;;;;;14.50;9.55;;;;;;;;;;5051960;28;20136;-85
2022/05/26 04:17:17;;;;;;;12.23;8.00;;;;;;;;;;5051862;28;20560;-84
2022/05/26 04:19:44;;;;;;;11.30;6.90;;;;;;;;;;5053009;28;20080;-85
2022/05/26 04:22:15;;;;;;;11.50;6.88;;;;;;;;;;5051842;28;20060;-85
2022/05/26 04:24:42;;;;;;;7.32;5.20;;;;;;;;;;5052902;28;20087;-84
2022/05/26 04:27:10;;;;;;;7.65;4.07;;;;;;;;;;5052150;28;20140;-85
2022/05/26 04:29:37;;;;;;;7.57;4.15;;;;;;;;;;5051646;28;20045;-85
2022/05/26 04:32:04;;;;;;;2.70;2.50;;;;;;;;;;5051869;28;20136;-85
2022/05/26 04:34:31;;;;;;;3.58;1.63;;;;;;;;;;5051656;28;20532;-85
2022/05/26 04:36:59;;;;;;;1.48;1.38;;;;;;;;;;5051795;28;20088;-85
2022/05/26 04:39:26;;;;;;;4.10;1.10;;;;;;;;;;5052782;28;20073;-85
2022/05/26 04:41:58;;;;;;;0.90;0.90;;;;;;;;;;5052627;28;20048;-85
2022/05/26 04:44:26;;;;;;;1.58;1.20;;;;;;;;;;5051242;28;20232;-85
2022/05/26 04:46:53;;;;;;;3.55;1.30;;;;;;;;;;5051756;28;20059;-85
2022/05/26 04:49:20;;;;;;;1.15;1.05;;;;;;;;;;5052786;28;20235;-86
2022/05/26 04:51:47;;;;;;;1.60;1.50;;;;;;;;;;5052930;28;20132;-85
2022/05/26 04:54:14;;;;;;;3.05;1.50;;;;;;;;;;5051368;28;20489;-86
2022/05/26 04:56:41;;;;;;;2.45;1.27;;;;;;;;;;5051232;28;20493;-85
2022/05/26 04:59:09;;;;;;;1.30;1.10;;;;;;;;;;5051882;28;20463;-86
2022/05/26 05:01:36;;;;;;;2.08;1.00;;;;;;;;;;5052515;28;20049;-86
2022/05/26 05:04:03;;;;;;;1.67;0.80;;;;;;;;;;5052622;28;20045;-85
2022/05/26 05:06:30;;;;;;;1.55;0.60;;;;;;;;;;5052434;28;20104;-85
2022/05/26 05:08:57;;;;;;;0.70;0.70;;;;;;;;;;5052515;28;20048;-85
2022/05/26 05:11:25;;;;;;;1.75;0.57;;;;;;;;;;5052367;28;20049;-85
2022/05/26 05:13:52;;;;;;;2.20;0.52;;;;;;;;;;5052619;28;20453;-85
2022/05/26 05:16:26;;;;;;;1.60;1.08;;;;;;;;;;5054403;28;20140;-85
2022/05/26 05:18:54;;;;;;;2.88;2.25;;;;;;;;;;5058040;28;20049;-85
2022/05/26 05:21:29;;;;;;;1.50;1.00;;;;;;;;;;5057915;28;20049;-85
2022/05/26 05:24:04;;;;;;;3.42;1.40;;;;;;;;;;5057647;28;20485;-86
2022/05/26 05:26:34;;;;;;;3.60;1.45;;;;;;;;;;5058802;28;20055;-84
2022/05/26 05:29:04;;;;;;;1.88;1.42;;;;;;;;;;5049784;28;20362;-84
2022/05/26 05:31:35;;;;;;;;;;;;;;;;;;5059366;28;20067;-83
2022/05/26 05:34:04;;;;;;;27.63;23.95;;;;;;;;;;5059111;28;20466;-83
2022/05/26 05:36:33;;;;;;;10.25;9.15;;;;;;;;;;5040878;28;20461;-83
2022/05/26 05:39:02;;;;;;;1.65;0.80;;;;;;;;;;5057948;28;20078;-83
2022/05/26 05:41:32;;;;;;;0.80;0.50;;;;;;;;;;5057523;28;20059;-84
2022/05/26 05:44:00;;;;;;;3.00;2.00;;;;;;;;;;5057713;28;20386;-83
2022/05/26 05:46:34;;;;;;;2.10;1.35;;;;;;;;;;5058692;28;20049;-84
2022/05/26 05:49:04;;;;;;;3.35;2.47;;;;;;;;;;5049538;28;20091;-84
2022/05/26 05:51:32;;;;;;;4.60;3.33;;;;;;;;;;5057526;28;20053;-86
2022/05/26 05:53:59;;;;;;;3.03;0.52;;;;;;;;;;5057887;28;20472;-84
2022/05/26 05:56:26;;;;;;;1.00;0.80;;;;;;;;;;5057414;28;20087;-85
2022/05/26 05:58:55;;;;;;;3.83;0.52;;;;;;;;;;5058644;28;20067;-84
2022/05/26 06:01:22;;;;;;;0.55;0.20;;;;;;;;;;5057400;28;20080;-85
2022/05/26 06:03:50;;;;;;;2.45;0.47;;;;;;;;;;5057483;28;20455;-85
2022/05/26 06:06:17;;;;;;;1.75;0.30;;;;;;;;;;5057574;28;20057;-86
2022/05/26 06:08:44;;;;;;;3.05;0.28;;;;;;;;;;5057606;28;20052;-84
2022/05/26 06:11:11;;;;;;;1.02;0.20;;;;;;;;;;5058665;28;20132;-84
2022/05/26 06:13:38;;;;;;;1.25;0.30;;;;;;;;;;5057384;28;20095;-85
2022/05/26 06:16:06;;;;;;;1.27;0.20;;;;;;;;;;5058506;28;20063;-84
2022/05/26 06:18:33;;;;;;;0.63;0.20;;;;;;;;;;5058800;28;20052;-88
2022/05/26 06:21:01;;;;;;;1.17;0.22;;;;;;;;;;5058390;28;20053;-87
2022/05/26 06:23:28;;;;;;;0.95;0.38;;;;;;;;;;5057297;28;20099;-85
2022/05/26 06:25:56;;;;;;;1.67;0.43;;;;;;;;;;5057104;28;20040;-82
2022/05/26 06:31:09;;;;;;;1.58;0.50;;;;;;;;;;5055142;28;20119;-83
2022/05/26 06:39:19;;;;;;;1.52;0.20;;;;;;;;;;5055287;28;20127;-83
2022/05/26 06:44:38;;;;;;;3.40;0.70;;;;;;;;;;5054735;28;20156;-82
2022/05/26 06:47:07;;;;;;;1.08;0.30;;;;;;;;;;5055264;28;20135;-84
2022/05/26 06:49:35;;;;;;;0.43;0.20;;;;;;;;;;5053788;28;20053;-82
2022/05/26 06:52:03;;;;;;;0.30;0.20;;;;;;;;;;5054999;28;20052;-82
2022/05/26 06:54:31;;;;;;;2.80;0.68;;;;;;;;;;5055142;28;20088;-85
2022/05/26 06:56:58;;;;;;;2.05;0.35;;;;;;;;;;5061032;28;20063;-85
2022/05/26 06:59:25;;;;;;;0.98;0.30;;;;;;;;;;5090019;28;20132;-85
2022/05/26 07:01:53;;;;;;;2.97;0.20;;;;;;;;;;5089916;28;20507;-84
2022/05/26 07:04:20;;;;;;;0.52;0.38;;;;;;;;;;5089932;28;20127;-82
2022/05/26 07:06:49;;;;;;;2.05;0.43;;;;;;;;;;5072719;28;20087;-81
2022/05/26 07:09:16;;;;;;;1.08;0.38;;;;;;;;;;5090380;28;20048;-83
2022/05/26 07:11:44;;;;;;;1.25;0.30;;;;;;;;;;5090170;28;20556;-82
2022/05/26 07:14:12;;;;;;;1.88;0.30;;;;;;;;;;5089654;28;20066;-85
2022/05/26 07:16:39;;;;;;;0.50;0.20;;;;;;;;;;5074287;28;20148;-82
2022/05/26 07:19:06;;;;;;;1.50;0.10;;;;;;;;;;5074627;28;20049;-82
2022/05/26 07:21:33;;;;;;;2.38;0.30;;;;;;;;;;5090195;28;20164;-83
2022/05/26 07:24:01;;;;;;;2.08;0.40;;;;;;;;;;5090196;28;20080;-85
2022/05/26 07:26:32;;;;;;;0.45;0.30;;;;;;;;;;5089597;28;20109;-82
2022/05/26 07:28:59;;;;;;;1.48;0.75;;;;;;;;;;5089939;28;20131;-82
2022/05/26 07:31:27;;;;;;;0.50;0.20;;;;;;;;;;5089681;28;20076;-85
2022/05/26 07:33:55;;;;;;;3.70;0.50;;;;;;;;;;5089906;28;20044;-85
2022/05/26 07:41:59;;;;;;;0.57;0.10;;;;;;;;;;5074209;28;20050;-86
2022/05/26 07:44:28;;;;;;;1.67;0.30;;;;;;;;;;5073825;28;20044;-84
2022/05/26 07:46:55;;;;;;;0.70;0.20;;;;;;;;;;5073999;28;20554;-88
2022/05/26 07:49:22;;;;;;;0.30;0.20;;;;;;;;;;5073905;28;20098;-85
2022/05/26 07:51:50;;;;;;;1.55;0.15;;;;;;;;;;5089306;28;20052;-88
2022/05/26 07:54:17;;;;;;;1.13;0.20;;;;;;;;;;5089404;28;20140;-85
2022/05/26 07:56:44;;;;;;;1.10;0.40;;;;;;;;;;5088968;28;20561;-84
2022/05/26 07:59:11;;;;;;;0.52;0.20;;;;;;;;;;5073717;28;20044;-89
2022/05/26 08:01:38;;;;;;;4.65;0.25;;;;;;;;;;5089101;28;20428;-84
2022/05/26 08:04:07;;;;;;;1.45;0.30;;;;;;;;;;5089379;28;20048;-85
2022/05/26 08:06:35;;;;;;;0.45;0.20;;;;;;;;;;5073539;28;20048;-84
2022/05/26 08:09:03;;;;;;;0.32;0.25;;;;;;;;;;5073529;28;20114;-86
2022/05/26 08:11:30;;;;;;;3.15;0.28;;;;;;;;;;5088971;28;20500;-86
2022/05/26 08:13:57;;;;;;;0.30;0.20;;;;;;;;;;5073580;28;20565;-84
2022/05/26 08:16:24;;;;;;;0.57;0.10;;;;;;;;;;5088823;28;20058;-86
2022/05/26 08:18:51;;;;;;;3.17;0.20;;;;;;;;;;5073036;28;20097;-84
2022/05/26 08:21:18;;;;;;;0.20;0.10;;;;;;;;;;5088722;28;20079;-85
2022/05/26 08:23:46;;;;;;;2.63;0.10;;;;;;;;;;5073479;28;20131;-85
2022/05/26 08:26:14;;;;;;;1.10;0.10;;;;;;;;;;5089043;28;20083;-85
2022/05/26 08:28:42;;;;;;;0.82;0.30;;;;;;;;;;5088938;28;20558;-85
2022/05/26 08:31:10;;;;;;;0.73;0.20;;;;;;;;;;5073223;28;20084;-84
2022/05/26 08:33:37;;;;;;;0.50;0.20;;;;;;;;;;5089123;28;20079;-85
2022/05/26 08:36:07;;;;;;;1.95;0.10;;;;;;;;;;5089346;28;20169;-85
2022/05/26 08:38:36;;;;;;;1.25;0.10;;;;;;;;;;5073247;28;20056;-85
2022/05/26 08:41:04;;;;;;;1.85;0.20;;;;;;;;;;5073216;28;20563;-85
2022/05/26 08:43:44;;;;;;;1.50;0.20;;;;;;;;;;5087635;28;20048;-85
2022/05/26 08:46:13;;;;;;;1.55;0.38;;;;;;;;;;5088868;28;20083;-87
2022/05/26 08:48:48;;;;;;;0.73;0.20;;;;;;;;;;5088895;28;20049;-85
2022/05/26 08:51:23;;;;;;;1.80;0.20;;;;;;;;;;5087882;28;20498;-86
2022/05/26 08:53:51;;;;;;;0.57;0.10;;;;;;;;;;5072977;28;20397;-85
2022/05/26 08:56:20;;;;;;;0.77;0.30;;;;;;;;;;5087976;28;20609;-85
2022/05/26 08:58:49;;;;;;;0.65;0.20;;;;;;;;;;5071769;28;20497;-84
2022/05/26 09:01:21;;;;;;;0.40;0.30;;;;;;;;;;5072937;28;20060;-86
2022/05/26 09:03:48;;;;;;;0.17;0.17;;;;;;;;;;5073002;28;20144;-85
2022/05/26 09:06:17;;;;;;;0.40;0.20;;;;;;;;;;5072621;28;20044;-86
2022/05/26 09:14:20;;;;;;;0.50;0.20;;;;;;;;;;5072723;28;20053;-85
2022/05/26 09:16:48;;;;;;;0.40;0.20;;;;;;;;;;5072132;28;20076;-86
2022/05/26 09:19:22;;;;;;;0.00;0.00;;;;;;;;;;5071637;28;20049;-86
2022/05/26 09:21:50;;;;;;;1.85;0.20;;;;;;;;;;5072614;28;20118;-89
2022/05/26 09:24:18;;;;;;;0.85;0.20;;;;;;;;;;5071613;28;20076;-88
2022/05/26 09:26:46;;;;;;;0.73;0.20;;;;;;;;;;5071587;28;20135;-84
2022/05/26 09:29:13;;;;;;;0.80;0.20;;;;;;;;;;5071444;28;20080;-85
2022/05/26 09:31:48;;;;;;;0.25;0.10;;;;;;;;;;5071134;28;20576;-84
2022/05/26 09:34:20;;;;;;;0.80;0.10;;;;;;;;;;5072800;28;20355;-86
2022/05/26 09:37:02;;;;;;;3.20;0.20;;;;;;;;;;5071757;28;20132;-85
2022/05/26 09:39:36;;;;;;;0.30;0.20;;;;;;;;;;5071225;28;20059;-85
2022/05/26 09:42:05;;;;;;;0.98;0.17;;;;;;;;;;5070915;28;20469;-86
2022/05/26 09:44:45;;;;;;;1.52;0.10;;;;;;;;;;5070976;28;20051;-85
2022/05/26 09:47:21;;;;;;;0.60;0.20;;;;;;;;;;5072658;28;20092;-85
2022/05/26 09:49:49;;;;;;;1.67;0.30;;;;;;;;;;5072411;28;20116;-86
2022/05/26 09:52:18;;;;;;;3.60;1.20;;;;;;;;;;5071303;28;20072;-86
2022/05/26 09:54:48;;;;;;;3.58;0.70;;;;;;;;;;5071271;28;20080;-84
2022/05/26 09:57:20;;;;;;;3.15;0.30;;;;;;;;;;5072192;28;20056;-84
2022/05/26 09:59:47;;;;;;;3.42;0.22;;;;;;;;;;5071586;28;20072;-87
2022/05/26 10:02:22;;;;;;;0.10;0.10;;;;;;;;;;5071981;28;20052;-84
2022/05/26 10:05:05;;;;;;;0.30;0.20;;;;;;;;;;5076083;28;20079;-86
2022/05/26 10:07:51;;;;;;;1.02;0.10;;;;;;;;;;5076049;28;20119;-85
2022/05/26 10:10:23;;;;;;;2.75;0.20;;;;;;;;;;5074750;28;20051;-85
2022/05/26 10:12:59;;;;;;;0.65;0.10;;;;;;;;;;5074841;28;20103;-85
2022/05/26 10:15:40;;;;;;;2.85;0.40;;;;;;;;;;5074583;28;20502;-84
2022/05/26 10:18:15;;;;;;;2.95;0.10;;;;;;;;;;5075093;28;20448;-83
2022/05/26 10:20:42;;;;;;;1.17;0.00;;;;;;;;;;5075057;28;20558;-84
2022/05/26 10:23:29;;;;;;;0.20;0.10;;;;;;;;;;5074873;28;20079;-87
2022/05/26 10:26:05;;;;;;;0.43;0.10;;;;;;;;;;5074705;28;20083;-86
2022/05/26 10:29:01;;;;;;;1.33;0.20;;;;;;;;;;5074625;28;20511;-86
2022/05/26 10:31:45;;;;;;;0.43;0.38;;;;;;;;;;5074768;28;20079;-85
2022/05/26 10:34:14;;;;;;;;;;;;;;;;;;5075834;28;20504;-85
2022/05/26 10:37:00;;;;;;;0.90;0.10;;;;;;;;;;5057677;28;20003;-84
2022/05/26 10:39:27;;;;;;;1.10;0.20;;;;;;;;;;5075277;28;20080;-86
2022/05/26 10:42:06;;;;;;;1.75;0.10;;;;;;;;;;5074589;28;20494;-86
2022/05/26 10:44:36;;;;;;;0.35;0.30;;;;;;;;;;5075332;28;20083;-85
2022/05/26 10:47:06;;;;;;;0.55;0.20;;;;;;;;;;5074739;28;20131;-84
2022/05/26 10:49:52;;;;;;;1.95;0.60;;;;;;;;;;5074192;28;20131;-86
2022/05/26 10:52:24;;;;;;;0.43;0.25;;;;;;;;;;5073958;28;20048;-88
2022/05/26 10:54:59;;;;;;;0.50;0.10;;;;;;;;;;5075345;28;20139;-84
2022/05/26 10:57:59;;;;;;;0.55;0.20;;;;;;;;;;5082619;28;20095;-83
2022/05/26 11:00:29;;;;;;;4.43;0.20;;;;;;;;;;5041934;28;20055;-87
2022/05/26 11:03:02;;;;;;;5.50;0.70;;;;;;;;;;5090186;28;20074;-85
2022/05/26 11:05:32;;;;;;;0.10;0.10;;;;;;;;;;5074662;28;20106;-85
2022/05/26 11:08:13;;;;;;;1.20;0.10;;;;;;;;;;5075311;28;20099;-87
2022/05/26 11:10:45;;;;;;;0.65;0.25;;;;;;;;;;5088083;28;20052;-85
2022/05/26 11:13:17;;;;;;;0.57;0.10;;;;;;;;;;5083629;28;20132;-85
2022/05/26 11:18:39;;;;;;;0.28;0.10;;;;;;;;;;5075020;28;20589;-88
2022/05/26 11:21:06;;;;;;;2.10;0.30;;;;;;;;;;5083362;28;20135;-85
2022/05/26 11:23:37;;;;;;;2.17;0.15;;;;;;;;;;5074858;28;20066;-86
2022/05/26 11:26:07;;;;;;;1.48;0.30;;;;;;;;;;5074670;28;20110;-85
2022/05/26 11:28:44;;;;;;;4.43;0.30;;;;;;;;;;5086646;28;20044;-86
2022/05/26 11:37:00;;;;;;;1.27;0.25;;;;;;;;;;5074702;28;20123;-85
2022/05/26 11:39:29;;;;;;;0.55;0.43;;;;;;;;;;5085884;28;20044;-83
2022/05/26 11:42:02;;;;;;;0.52;0.28;;;;;;;;;;5090287;28;20076;-86
2022/05/26 11:44:31;;;;;;;3.78;0.50;;;;;;;;;;5085880;28;20139;-86
2022/05/26 11:47:19;;;;;;;2.72;0.50;;;;;;;;;;5074327;28;20051;-84
2022/05/26 11:49:46;;;;;;;0.30;0.20;;;;;;;;;;5088377;28;20076;-87
2022/05/26 11:52:37;;;;;;;1.73;0.20;;;;;;;;;;5075144;28;20052;-88
2022/05/26 11:55:31;;;;;;;1.85;0.40;;;;;;;;;;5031591;28;20045;-85
2022/05/26 11:58:13;;;;;;;1.48;0.20;;;;;;;;;;5070827;28;20135;-87
2022/05/26 12:00:43;;;;;;;0.90;0.25;;;;;;;;;;5074620;28;20123;-83
2022/05/26 12:03:23;;;;;;;0.17;0.10;;;;;;;;;;5082884;28;20086;-87
2022/05/26 12:06:09;;;;;;;2.10;0.30;;;;;;;;;;5089457;28;20056;-89
2022/05/26 12:08:42;;;;;;;0.75;0.15;;;;;;;;;;5086138;28;20140;-89
2022/05/26 12:11:12;;;;;;;1.23;0.20;;;;;;;;;;5074060;28;20135;-88
2022/05/26 12:13:54;;;;;;;2.58;0.20;;;;;;;;;;5086828;28;20139;-87
2022/05/26 12:16:24;;;;;;;2.30;0.20;;;;;;;;;;5073621;28;20068;-84
2022/05/26 12:19:06;;;;;;;0.93;0.28;;;;;;;;;;5088371;28;20472;-90
2022/05/26 12:21:44;;;;;;;3.47;0.40;;;;;;;;;;5085403;28;20569;-85
2022/05/26 12:24:30;;;;;;;0.30;0.30;;;;;;;;;;5073482;28;20465;-85
2022/05/26 12:26:58;;;;;;;0.90;0.20;;;;;;;;;;5088803;28;20435;-86
2022/05/26 12:29:59;;;;;;;1.17;0.30;;;;;;;;;;5084624;28;20131;-89
2022/05/26 12:32:28;;;;;;;0.63;0.13;;;;;;;;;;5089276;28;20060;-86
2022/05/26 12:35:04;;;;;;;2.33;0.32;;;;;;;;;;5073569;28;20109;-87
2022/05/26 12:37:31;;;;;;;2.35;0.30;;;;;;;;;;5084909;28;20136;-85
2022/05/26 12:40:17;;;;;;;0.70;0.30;;;;;;;;;;5089129;28;20476;-87
2022/05/26 12:42:47;;;;;;;0.40;0.20;;;;;;;;;;5086838;28;20076;-87
2022/05/26 12:45:20;;;;;;;2.20;0.30;;;;;;;;;;5073504;28;20127;-91
2022/05/26 12:47:50;;;;;;;1.90;0.40;;;;;;;;;;5087526;28;20405;-88
2022/05/26 12:50:19;;;;;;;1.90;0.30;;;;;;;;;;5073195;28;20136;-85
2022/05/26 12:53:00;;;;;;;0.45;0.13;;;;;;;;;;5073366;28;20146;-85
2022/05/26 12:55:33;;;;;;;1.77;0.40;;;;;;;;;;5073085;28;20044;-87
2022/05/26 12:58:13;;;;;;;1.92;0.50;;;;;;;;;;5088621;28;20136;-86
2022/05/26 13:00:45;;;;;;;0.88;0.32;;;;;;;;;;5086194;28;20131;-86
2022/05/26 13:03:31;;;;;;;1.33;0.40;;;;;;;;;;5082388;28;20052;-87
2022/05/26 13:06:09;;;;;;;1.80;0.70;;;;;;;;;;5088899;28;20079;-90
2022/05/26 13:08:54;;;;;;;0.40;0.40;;;;;;;;;;5085397;28;20135;-85
2022/05/26 13:11:25;;;;;;;0.63;0.28;;;;;;;;;;5073196;28;20555;-87
2022/05/26 13:13:54;;;;;;;0.50;0.30;;;;;;;;;;5087950;28;20044;-87
2022/05/26 13:16:32;;;;;;;8.20;1.02;;;;;;;;;;5083330;28;20140;-86
2022/05/26 13:19:10;;;;;;;0.38;0.20;;;;;;;;;;5088723;28;20048;-84
2022/05/26 13:21:38;;;;;;;1.35;0.43;;;;;;;;;;5085388;28;20123;-89
2022/05/26 13:24:17;;;;;;;0.93;0.30;;;;;;;;;;5080930;28;20049;-90
2022/05/26 13:26:45;;;;;;;1.42;0.35;;;;;;;;;;5088594;28;20135;-86
2022/05/26 13:29:15;;;;;;;1.30;0.32;;;;;;;;;;5072682;28;20055;-85
2022/05/26 13:34:29;;;;;;;0.98;0.30;;;;;;;;;;5072710;28;20055;-85
2022/05/26 13:36:56;;;;;;;0.40;0.38;;;;;;;;;;5088439;28;20055;-85
2022/05/26 13:39:25;;;;;;;0.40;0.40;;;;;;;;;;5076564;28;20045;-86
2022/05/26 13:41:54;;;;;;;2.00;0.43;;;;;;;;;;5091347;28;20139;-85
2022/05/26 13:44:30;;;;;;;0.85;0.40;;;;;;;;;;5076514;28;20054;-86
2022/05/26 13:46:58;;;;;;;1.13;0.32;;;;;;;;;;5092008;28;20147;-86
2022/05/26 13:49:32;;;;;;;1.85;0.50;;;;;;;;;;5087202;28;20119;-85
2022/05/26 13:52:08;;;;;;;0.77;0.43;;;;;;;;;;5076297;28;20123;-85
2022/05/26 13:54:43;;;;;;;0.82;0.30;;;;;;;;;;5088313;28;20404;-86
2022/05/26 13:57:17;;;;;;;0.30;0.30;;;;;;;;;;5067071;28;20509;-86
2022/05/26 14:00:07;;;;;;;3.42;0.50;;;;;;;;;;5055071;28;20136;-86
2022/05/26 14:02:36;;;;;;;2.17;0.50;;;;;;;;;;5028583;28;20493;-85
2022/05/26 14:05:08;;;;;;;1.25;0.60;;;;;;;;;;5055848;28;20049;-85
2022/05/26 14:07:37;;;;;;;0.30;0.30;;;;;;;;;;5054918;28;20136;-84
2022/05/26 14:10:10;;;;;;;1.38;0.40;;;;;;;;;;5054789;28;20143;-85
2022/05/26 14:12:37;;;;;;;1.02;0.65;;;;;;;;;;5055011;28;20456;-88
2022/05/26 14:15:05;;;;;;;2.60;0.55;;;;;;;;;;5055950;28;20132;-85
2022/05/26 14:17:34;;;;;;;0.63;0.55;;;;;;;;;;5054917;28;20136;-85
2022/05/26 14:20:29;;;;;;;1.08;0.60;;;;;;;;;;5048690;28;20138;-85
2022/05/26 14:22:56;;;;;;;0.95;0.40;;;;;;;;;;5054867;28;20139;-86
2022/05/26 14:25:25;;;;;;;2.60;0.40;;;;;;;;;;5054728;28;20139;-85
2022/05/26 14:27:57;;;;;;;1.42;0.60;;;;;;;;;;5054412;28;20136;-85
2022/05/26 14:30:42;;;;;;;0.98;0.50;;;;;;;;;;5055706;28;20133;-84
2022/05/26 14:33:21;;;;;;;2.55;0.50;;;;;;;;;;5055546;28;20045;-84
2022/05/26 14:35:49;;;;;;;2.92;0.40;;;;;;;;;;5054672;28;20051;-85
2022/05/26 14:38:17;;;;;;;2.38;0.55;;;;;;;;;;5055542;28;20413;-84
2022/05/26 14:40:45;;;;;;;1.35;0.43;;;;;;;;;;5054463;28;20501;-85
2022/05/26 14:43:17;;;;;;;1.25;0.35;;;;;;;;;;5054505;28;20448;-84
2022/05/26 14:45:44;;;;;;;1.00;0.38;;;;;;;;;;5054358;28;20489;-88
2022/05/26 14:48:12;;;;;;;3.55;0.30;;;;;;;;;;5053314;28;20132;-85
2022/05/26 14:50:39;;;;;;;0.82;0.30;;;;;;;;;;5053698;28;20049;-85
2022/05/26 14:53:08;;;;;;;0.90;0.50;;;;;;;;;;5054194;28;20569;-85
2022/05/26 14:55:37;;;;;;;1.15;0.43;;;;;;;;;;5053961;28;20057;-85
2022/05/26 14:58:10;;;;;;;1.48;0.40;;;;;;;;;;5054869;28;20513;-85
2022/05/26 15:00:39;;;;;;;0.68;0.45;;;;;;;;;;5054933;28;20143;-85
2022/05/26 15:03:06;;;;;;;2.42;0.40;;;;;;;;;;5053670;28;20076;-84
2022/05/26 15:05:34;;;;;;;1.77;0.50;;;;;;;;;;5054818;28;20056;-85
2022/05/26 15:08:01;;;;;;;0.85;0.40;;;;;;;;;;5053718;28;20539;-85
2022/05/26 15:10:28;;;;;;;2.00;0.50;;;;;;;;;;5053692;28;20128;-85
2022/05/26 15:12:55;;;;;;;1.98;0.43;;;;;;;;;;5053712;28;20531;-88
2022/05/26 15:15:23;;;;;;;2.95;0.50;;;;;;;;;;5053735;28;20048;-89
2022/05/26 15:17:51;;;;;;;1.80;0.60;;;;;;;;;;5053988;28;20465;-84
2022/05/26 15:20:19;;;;;;;1.00;0.40;;;;;;;;;;5054344;28;20136;-85
2022/05/26 15:22:46;;;;;;;2.85;0.60;;;;;;;;;;5053514;28;20064;-86
2022/05/26 15:25:15;;;;;;;2.80;0.50;;;;;;;;;;5053273;28;20136;-84
2022/05/26 15:27:43;;;;;;;1.35;0.65;;;;;;;;;;5052979;28;20103;-86
2022/05/26 15:30:14;;;;;;;0.80;0.47;;;;;;;;;;5054502;28;20049;-85
2022/05/26 15:32:42;;;;;;;0.50;0.43;;;;;;;;;;5053529;28;20103;-86
2022/05/26 15:35:11;;;;;;;1.48;0.35;;;;;;;;;;5054435;28;20125;-83
2022/05/26 15:37:39;;;;;;;2.97;0.63;;;;;;;;;;5054221;28;20052;-89
2022/05/26 15:40:10;;;;;;;3.60;0.50;;;;;;;;;;5054585;28;20079;-88
2022/05/26 15:42:37;;;;;;;1.58;0.40;;;;;;;;;;5054324;28;20080;-84
2022/05/26 15:45:05;;;;;;;0.82;0.47;;;;;;;;;;5054968;28;20481;-87
2022/05/26 15:47:39;;;;;;;1.48;0.65;;;;;;;;;;5053912;28;20140;-86
2022/05/26 15:50:11;;;;;;;3.10;0.80;;;;;;;;;;5053103;28;20481;-85